Time;durP1;ratioP1;P1;durP2;ratioP2;P2;SDS_P1;SDS_P2;PMS_P1;PMS_P2;Temp;Humidity;BMP_temperature;BMP_pressure;BME280_temperature;BME280_humidity;BME280_pressure;Samples;Min_cycle;Max_cycle;Signal;HPM_P1;HPM_P2
2021/08/17 00:00:51;;;;;;;32.53;19.33;;;;;;;16.71;66.66;101669.59;5056106;28;20057;-62
2021/08/17 00:03:19;;;;;;;58.42;19.63;;;;;;;16.70;66.31;101669.94;5057221;28;20751;-69
2021/08/17 00:05:46;;;;;;;36.63;19.33;;;;;;;16.76;66.29;101672.19;5057211;28;20040;-69
2021/08/17 00:08:14;;;;;;;37.50;19.15;;;;;;;16.56;66.98;101670.13;5057340;28;20056;-69
2021/08/17 00:10:41;;;;;;;32.42;18.88;;;;;;;16.43;67.40;101676.66;5057527;28;20060;-70
2021/08/17 00:13:08;;;;;;;34.85;18.70;;;;;;;16.47;67.92;101672.13;5049623;28;20053;-70
2021/08/17 00:15:36;;;;;;;30.67;17.80;;;;;;;16.73;66.80;101666.50;5036925;28;20060;-70
2021/08/17 00:18:03;;;;;;;31.75;17.92;;;;;;;16.46;67.23;101676.03;5037139;28;20080;-70
2021/08/17 00:20:31;;;;;;;35.35;16.92;;;;;;;16.11;69.18;101668.81;5035454;28;20061;-70
2021/08/17 00:22:58;;;;;;;39.38;18.90;;;;;;;15.73;70.67;101676.16;5038174;28;20049;-69
2021/08/17 00:25:26;;;;;;;36.70;18.60;;;;;;;15.85;70.49;101668.00;5036430;28;20604;-70
2021/08/17 00:27:53;;;;;;;36.35;17.83;;;;;;;16.07;70.06;101672.59;5038072;28;20443;-70
2021/08/17 00:30:21;;;;;;;29.35;18.10;;;;;;;16.40;69.02;101665.38;5037183;28;20053;-69
2021/08/17 00:32:48;;;;;;;33.35;17.95;;;;;;;16.43;68.71;101664.72;5035547;28;20127;-62
2021/08/17 00:35:15;;;;;;;31.27;18.40;;;;;;;16.56;68.18;101666.53;5035154;28;20053;-62
2021/08/17 00:37:43;;;;;;;32.70;18.48;;;;;;;16.59;68.03;101666.69;5035514;28;20053;-62
2021/08/17 00:40:10;;;;;;;31.60;17.33;;;;;;;16.65;67.81;101668.13;5002993;28;20064;-61
2021/08/17 00:42:45;;;;;;;33.22;16.83;;;;;;;16.79;67.30;101667.91;5034918;28;20057;-61
2021/08/17 00:45:20;;;;;;;34.60;17.95;;;;;;;16.58;67.76;101665.03;5018823;28;20060;-62
2021/08/17 00:47:49;;;;;;;33.33;16.92;;;;;;;16.59;67.73;101663.09;5036191;28;20060;-69
2021/08/17 00:50:21;;;;;;;32.88;16.95;;;;;;;16.75;67.33;101662.22;5036524;28;20057;-62
2021/08/17 00:52:50;;;;;;;28.27;17.33;;;;;;;16.83;66.91;101660.56;5018650;28;20056;-62
2021/08/17 00:55:17;;;;;;;33.28;17.50;;;;;;;16.96;66.49;101664.28;5035914;28;20064;-62
2021/08/17 00:57:46;;;;;;;30.48;17.83;;;;;;;16.87;66.80;101658.75;5018203;28;20057;-62
2021/08/17 01:00:14;;;;;;;41.45;18.33;;;;;;;16.81;66.71;101654.50;5036214;28;20064;-69
2021/08/17 01:02:42;;;;;;;27.50;15.95;;;;;;;16.63;67.60;101656.50;5036930;28;20050;-60
2021/08/17 01:05:11;;;;;;;30.20;17.42;;;;;;;16.64;67.16;101654.56;5034831;28;20065;-68
2021/08/17 01:07:39;;;;;;;33.67;16.85;;;;;;;16.52;67.46;101655.25;5036551;28;20037;-69
2021/08/17 01:10:08;;;;;;;29.42;17.40;;;;;;;16.63;67.08;101655.72;5035275;28;20124;-69
2021/08/17 01:12:36;;;;;;;32.97;17.77;;;;;;;16.52;67.67;101651.66;5038036;28;20036;-68
2021/08/17 01:15:05;;;;;;;30.48;17.60;;;;;;;16.44;68.05;101655.25;5055980;28;20068;-68
2021/08/17 01:17:32;;;;;;;32.17;18.17;;;;;;;16.43;67.92;101648.03;5056041;28;20045;-69
2021/08/17 01:20:00;;;;;;;33.80;17.75;;;;;;;16.39;68.00;101653.44;5054498;28;20041;-61
2021/08/17 01:22:27;;;;;;;37.55;17.98;;;;;;;16.34;68.20;101648.03;5055936;28;20060;-69
2021/08/17 01:24:55;;;;;;;29.60;17.67;;;;;;;16.48;67.73;101653.44;5055596;28;20053;-61
2021/08/17 01:27:22;;;;;;;31.40;17.80;;;;;;;16.42;67.99;101658.31;5053865;28;20053;-62
2021/08/17 01:29:49;;;;;;;30.00;17.40;;;;;;;16.35;68.51;101646.88;5055798;28;20049;-63
2021/08/17 01:32:18;;;;;;;41.25;18.25;;;;;;;16.33;68.55;101662.28;5055632;28;20052;-62
2021/08/17 01:34:45;;;;;;;31.77;17.50;;;;;;;16.26;68.72;101667.53;5055421;28;20053;-62
2021/08/17 01:37:12;;;;;;;34.35;17.58;;;;;;;16.40;68.54;101665.38;5055427;28;20056;-69
2021/08/17 01:39:40;;;;;;;35.03;17.35;;;;;;;16.26;68.67;101665.56;5054269;28;20059;-69
2021/08/17 01:42:07;;;;;;;30.05;16.55;;;;;;;16.23;69.08;101665.41;5055677;28;20045;-69
2021/08/17 01:44:34;;;;;;;30.15;16.58;;;;;;;16.23;69.09;101668.97;5037502;28;20056;-62
2021/08/17 01:47:02;;;;;;;31.27;16.45;;;;;;;16.18;69.13;101671.94;5053887;28;20033;-62
2021/08/17 01:49:29;;;;;;;29.17;16.83;;;;;;;16.25;69.15;101666.69;5055232;28;20057;-62
2021/08/17 01:51:56;;;;;;;31.88;17.05;;;;;;;16.11;69.56;101665.25;5055327;28;20080;-61
2021/08/17 01:54:24;;;;;;;34.65;16.00;;;;;;;16.00;70.06;101666.72;5054154;28;20052;-69
2021/08/17 01:56:51;;;;;;;30.88;16.17;;;;;;;16.30;69.51;101663.75;5054505;28;20037;-62
2021/08/17 01:59:18;;;;;;;31.42;16.98;;;;;;;16.12;69.57;101661.31;5055462;28;20055;-62
2021/08/17 02:01:45;;;;;;;30.77;15.13;;;;;;;16.07;70.09;101667.88;5053434;28;20048;-62
2021/08/17 02:04:13;;;;;;;27.58;15.05;;;;;;;16.19;69.25;101661.63;5054846;28;20053;-62
2021/08/17 02:06:40;;;;;;;28.20;14.85;;;;;;;16.09;69.72;101662.78;5054981;28;20353;-62
2021/08/17 02:09:07;;;;;;;38.38;16.42;;;;;;;16.04;70.10;101653.81;5054954;28;20059;-62
2021/08/17 02:11:34;;;;;;;28.10;15.93;;;;;;;16.19;69.71;101645.78;5055144;28;20060;-63
2021/08/17 02:14:03;;;;;;;26.92;14.93;;;;;;;15.94;70.09;101651.31;5040267;28;20054;-69
2021/08/17 02:16:31;;;;;;;27.83;14.73;;;;;;;16.06;70.14;101646.75;5033732;28;20049;-69
2021/08/17 02:18:58;;;;;;;28.75;16.02;;;;;;;16.00;70.04;101645.31;5034755;28;20046;-69
2021/08/17 02:21:25;;;;;;;32.35;16.52;;;;;;;16.16;69.27;101642.84;5035090;28;20061;-69
2021/08/17 02:23:53;;;;;;;26.42;15.05;;;;;;;16.00;69.94;101648.09;5035082;28;20489;-69
2021/08/17 02:26:20;;;;;;;33.03;16.15;;;;;;;15.99;70.04;101649.22;5034881;28;20038;-69
2021/08/17 02:28:47;;;;;;;27.17;14.80;;;;;;;16.15;69.17;101646.75;5033498;28;20068;-70
2021/08/17 02:31:14;;;;;;;28.90;16.70;;;;;;;15.95;70.14;101642.69;5034904;28;20046;-69
2021/08/17 02:33:41;;;;;;;32.03;17.95;;;;;;;15.96;70.21;101647.09;5034342;28;20052;-69
2021/08/17 02:36:09;;;;;;;31.83;15.93;;;;;;;15.95;70.32;101647.44;5034413;28;20168;-69
2021/08/17 02:38:36;;;;;;;29.77;16.10;;;;;;;15.90;70.49;101644.81;5035148;28;20117;-69
2021/08/17 02:41:03;;;;;;;28.05;16.05;;;;;;;16.00;70.30;101645.31;5036208;28;20050;-69
2021/08/17 02:43:30;;;;;;;33.35;15.93;;;;;;;16.01;69.82;101643.31;5034056;28;20057;-69
2021/08/17 02:45:58;;;;;;;26.40;14.13;;;;;;;16.00;69.78;101650.88;5035643;28;20500;-69
2021/08/17 02:48:25;;;;;;;29.65;15.20;;;;;;;15.86;70.23;101644.66;5037060;28;20401;-68
2021/08/17 02:50:53;;;;;;;25.25;14.48;;;;;;;16.02;70.03;101651.34;5035804;28;20045;-69
2021/08/17 02:53:20;;;;;;;25.38;13.98;;;;;;;15.78;70.53;101640.72;5034504;28;20056;-69
2021/08/17 02:55:47;;;;;;;26.88;14.80;;;;;;;15.73;71.14;101651.16;5034751;28;20060;-69
2021/08/17 02:58:16;;;;;;;28.98;14.35;;;;;;;15.95;70.22;101650.19;5034419;28;20049;-69
2021/08/17 03:00:44;;;;;;;34.17;15.82;;;;;;;15.88;70.27;101650.69;5033065;28;20042;-69
2021/08/17 03:03:12;;;;;;;30.05;15.15;;;;;;;15.79;70.71;101645.09;5035638;28;20121;-69
2021/08/17 03:05:40;;;;;;;22.08;13.30;;;;;;;15.84;70.55;101649.72;5036001;28;20056;-69
2021/08/17 03:08:08;;;;;;;27.33;14.15;;;;;;;15.97;69.86;101645.13;5034788;28;20056;-69
2021/08/17 03:10:37;;;;;;;27.55;14.75;;;;;;;16.07;69.60;101651.19;5034717;28;20401;-70
2021/08/17 03:13:06;;;;;;;29.70;14.27;;;;;;;15.86;70.02;101646.59;5041401;28;20060;-69
2021/08/17 03:15:33;;;;;;;27.13;13.63;;;;;;;15.87;70.10;101642.66;5054870;28;20044;-69
2021/08/17 03:18:04;;;;;;;27.27;14.35;;;;;;;15.78;70.33;101646.25;5053259;28;20136;-72
2021/08/17 03:20:33;;;;;;;25.85;14.00;;;;;;;16.25;69.24;101643.66;5054571;28;20056;-69
2021/08/17 03:23:01;;;;;;;25.90;14.07;;;;;;;16.02;69.88;101639.41;5054138;28;20421;-69
2021/08/17 03:25:28;;;;;;;27.52;14.65;;;;;;;15.73;70.34;101642.81;5036093;28;20064;-69
2021/08/17 03:27:56;;;;;;;26.90;14.05;;;;;;;15.87;70.31;101634.31;5054044;28;20060;-70
2021/08/17 03:30:24;;;;;;;24.58;13.95;;;;;;;15.86;69.53;101636.31;5053167;28;20064;-68
2021/08/17 03:32:53;;;;;;;25.67;13.95;;;;;;;15.67;70.32;101639.38;5053877;28;20055;-69
2021/08/17 03:35:20;;;;;;;26.48;13.23;;;;;;;15.56;70.88;101637.25;5052425;28;20056;-69
2021/08/17 03:37:48;;;;;;;31.17;14.57;;;;;;;15.45;71.23;101636.75;5054145;28;20148;-68
2021/08/17 03:40:18;;;;;;;25.83;13.32;;;;;;;15.59;71.05;101642.97;5036439;28;20053;-68
2021/08/17 03:42:45;;;;;;;26.83;13.30;;;;;;;15.38;71.31;101643.88;5053709;28;20539;-69
2021/08/17 03:45:15;;;;;;;26.33;13.43;;;;;;;15.52;71.30;101645.41;5054127;28;20056;-69
2021/08/17 03:47:43;;;;;;;25.08;14.23;;;;;;;15.58;70.67;101640.53;5053835;28;20040;-68
2021/08/17 03:50:12;;;;;;;28.95;14.45;;;;;;;15.66;70.74;101639.72;5036409;28;20083;-69
2021/08/17 03:52:41;;;;;;;29.38;13.85;;;;;;;15.58;70.81;101643.31;5054050;28;20408;-68
2021/08/17 03:55:09;;;;;;;24.35;14.30;;;;;;;15.53;71.18;101643.47;5053781;28;20052;-68
2021/08/17 03:57:36;;;;;;;26.88;13.95;;;;;;;15.42;71.38;101642.13;5053826;28;20676;-69
2021/08/17 04:00:08;;;;;;;26.98;14.13;;;;;;;15.59;70.83;101639.38;5053805;28;20049;-69
2021/08/17 04:02:38;;;;;;;31.80;14.40;;;;;;;15.64;70.81;101633.66;5055677;28;20053;-69
2021/08/17 04:05:06;;;;;;;31.42;15.18;;;;;;;15.83;70.08;101634.16;5056848;28;20072;-69
2021/08/17 04:07:33;;;;;;;22.38;13.25;;;;;;;15.76;70.26;101633.84;5056236;28;20037;-70
2021/08/17 04:10:00;;;;;;;27.65;14.73;;;;;;;15.54;70.82;101629.25;5055962;28;20044;-69
2021/08/17 04:12:28;;;;;;;26.50;14.00;;;;;;;15.66;70.70;101645.25;5054360;28;20037;-69
2021/08/17 04:14:55;;;;;;;29.27;12.93;;;;;;;15.56;70.74;101635.31;5035904;28;20072;-69
2021/08/17 04:17:22;;;;;;;29.02;14.32;;;;;;;15.54;71.07;101636.75;5036507;28;20480;-67
2021/08/17 04:19:50;;;;;;;26.70;13.55;;;;;;;15.51;71.07;101629.09;5035436;28;20056;-69
2021/08/17 04:22:17;;;;;;;25.85;13.52;;;;;;;15.49;71.33;101639.69;5034842;28;20079;-69
2021/08/17 04:24:44;;;;;;;26.92;14.63;;;;;;;15.38;71.83;101630.00;5035850;28;20052;-69
2021/08/17 04:27:12;;;;;;;28.55;14.10;;;;;;;15.49;71.33;101628.59;5035156;28;20049;-69
2021/08/17 04:29:39;;;;;;;29.30;13.80;;;;;;;15.43;71.58;101636.25;5033582;28;20041;-69
2021/08/17 04:32:07;;;;;;;29.73;13.60;;;;;;;15.48;71.93;101627.75;5033195;28;20056;-69
2021/08/17 04:34:34;;;;;;;33.25;13.95;;;;;;;15.46;71.49;101626.47;5034621;28;20057;-69
2021/08/17 04:37:02;;;;;;;25.42;13.25;;;;;;;15.30;72.24;101628.84;5034427;28;20061;-69
2021/08/17 04:39:29;;;;;;;25.13;13.13;;;;;;;15.49;71.64;101623.84;5033866;28;20050;-69
2021/08/17 04:41:56;;;;;;;27.40;13.77;;;;;;;15.49;71.24;101629.41;5037393;28;20064;-69
2021/08/17 04:44:23;;;;;;;27.00;13.85;;;;;;;15.60;70.63;101627.13;5037254;28;20049;-70
2021/08/17 04:46:51;;;;;;;29.52;14.45;;;;;;;15.43;71.59;101629.91;5037806;28;20060;-70
2021/08/17 04:49:18;;;;;;;28.52;14.05;;;;;;;15.44;71.65;101631.53;5035687;28;20054;-69
2021/08/17 04:51:45;;;;;;;27.77;13.80;;;;;;;15.39;71.85;101635.25;5037418;28;20501;-69
2021/08/17 04:54:13;;;;;;;29.42;14.20;;;;;;;15.49;71.67;101640.53;5021517;28;20386;-68
2021/08/17 04:56:40;;;;;;;24.63;14.35;;;;;;;15.43;71.33;101638.22;5038146;28;20057;-69
2021/08/17 04:59:08;;;;;;;27.80;13.32;;;;;;;15.35;72.03;101637.03;5038785;28;20064;-69
2021/08/17 05:01:35;;;;;;;30.20;14.18;;;;;;;15.33;72.06;101636.53;5037111;28;20053;-70
2021/08/17 05:04:04;;;;;;;30.17;14.57;;;;;;;15.41;71.59;101641.28;5036334;28;20046;-69
2021/08/17 05:06:31;;;;;;;26.50;13.80;;;;;;;15.18;72.52;101631.44;5036051;28;20046;-69
2021/08/17 05:08:58;;;;;;;24.77;13.57;;;;;;;15.31;72.38;101630.47;5036577;28;20045;-69
2021/08/17 05:11:26;;;;;;;27.38;13.80;;;;;;;15.35;72.49;101638.97;5037338;28;20054;-70
2021/08/17 05:13:53;;;;;;;26.73;13.95;;;;;;;15.34;72.30;101634.56;5049386;28;20052;-70
2021/08/17 05:16:21;;;;;;;25.35;14.35;;;;;;;15.39;72.35;101643.56;5056681;28;20253;-70
2021/08/17 05:18:48;;;;;;;25.33;13.02;;;;;;;15.47;71.73;101650.31;5054045;28;20060;-70
2021/08/17 05:21:16;;;;;;;25.83;14.18;;;;;;;15.24;72.57;101638.44;5055572;28;20049;-69
2021/08/17 05:23:43;;;;;;;26.00;13.40;;;;;;;15.42;72.12;101645.72;5055121;28;20037;-69
2021/08/17 05:26:10;;;;;;;26.42;14.35;;;;;;;15.45;71.66;101656.19;5054563;28;20048;-70
2021/08/17 05:28:37;;;;;;;34.10;13.68;;;;;;;15.31;72.32;101649.91;5054460;28;20048;-70
2021/08/17 05:31:05;;;;;;;28.60;13.32;;;;;;;15.45;72.19;101647.84;5056028;28;20064;-69
2021/08/17 05:33:32;;;;;;;30.15;13.73;;;;;;;15.35;72.12;101653.69;5055750;28;20055;-69
2021/08/17 05:35:59;;;;;;;29.42;13.75;;;;;;;15.37;72.05;101648.63;5055332;28;20408;-69
2021/08/17 05:38:27;;;;;;;29.75;13.30;;;;;;;15.47;71.82;101661.41;5055399;28;20060;-69
2021/08/17 05:40:54;;;;;;;24.90;14.20;;;;;;;15.48;71.76;101661.06;5055486;28;20053;-69
2021/08/17 05:43:21;;;;;;;25.05;13.15;;;;;;;15.53;71.69;101671.22;5055835;28;20048;-70
2021/08/17 05:46:05;;;;;;;25.95;14.05;;;;;;;15.57;71.94;101674.97;5055972;28;20049;-70
2021/08/17 05:48:37;;;;;;;23.05;12.90;;;;;;;15.43;71.59;101669.56;5055470;28;20049;-70
2021/08/17 05:51:04;;;;;;;28.77;13.80;;;;;;;15.14;72.91;101671.22;5055922;28;20695;-69
2021/08/17 05:53:31;;;;;;;27.98;13.32;;;;;;;15.22;72.83;101673.25;5055281;28;20049;-69
2021/08/17 05:55:59;;;;;;;32.42;14.20;;;;;;;15.28;72.88;101672.75;5055248;28;20064;-68
2021/08/17 05:58:26;;;;;;;28.88;13.25;;;;;;;15.31;72.63;101671.28;5053696;28;20052;-69
2021/08/17 06:00:53;;;;;;;29.05;13.82;;;;;;;15.56;71.87;101676.13;5053371;28;20061;-69
2021/08/17 06:03:20;;;;;;;22.15;13.00;;;;;;;15.47;72.00;101673.34;5054884;28;20044;-69
2021/08/17 06:05:48;;;;;;;29.75;12.93;;;;;;;15.54;72.23;101675.63;5053233;28;20067;-69
2021/08/17 06:08:15;;;;;;;31.40;13.43;;;;;;;15.42;72.84;101672.66;5054910;28;20048;-69
2021/08/17 06:10:42;;;;;;;26.73;13.13;;;;;;;15.29;72.94;101679.94;5053911;28;20067;-69
2021/08/17 06:13:10;;;;;;;30.15;13.75;;;;;;;15.30;73.12;101678.81;5047044;28;20053;-69
2021/08/17 06:15:37;;;;;;;25.50;13.02;;;;;;;15.41;73.00;101680.16;5035012;28;20445;-70
2021/08/17 06:18:05;;;;;;;30.67;14.02;;;;;;;15.45;72.84;101681.16;5034720;28;20471;-70
2021/08/17 06:20:32;;;;;;;26.65;12.38;;;;;;;15.52;73.01;101681.50;5034816;28;20061;-70
2021/08/17 06:23:00;;;;;;;26.48;12.82;;;;;;;15.61;73.08;101690.69;5034987;28;20054;-69
2021/08/17 06:25:29;;;;;;;28.75;13.82;;;;;;;15.75;72.22;101687.75;5035032;28;20061;-70
2021/08/17 06:27:57;;;;;;;25.10;13.27;;;;;;;15.73;71.77;101696.44;5034584;28;20048;-69
2021/08/17 06:30:24;;;;;;;29.15;13.88;;;;;;;15.54;72.91;101690.34;5035149;28;20049;-70
2021/08/17 06:32:54;;;;;;;22.88;12.38;;;;;;;15.55;73.27;101683.63;5034560;28;20049;-70
2021/08/17 06:35:22;;;;;;;25.98;12.45;;;;;;;15.78;72.56;101685.16;5033380;28;20049;-70
2021/08/17 06:37:49;;;;;;;25.83;12.35;;;;;;;15.84;72.38;101685.81;5034473;28;20049;-69
2021/08/17 06:40:17;;;;;;;27.85;13.07;;;;;;;15.98;71.60;101685.66;5033366;28;20052;-70
2021/08/17 06:42:44;;;;;;;27.60;12.82;;;;;;;16.01;71.35;101685.84;5034600;28;20061;-70
2021/08/17 06:45:12;;;;;;;21.52;12.52;;;;;;;15.97;71.87;101684.84;5033217;28;20053;-69
2021/08/17 06:47:46;;;;;;;23.77;11.15;;;;;;;16.10;71.51;101689.44;5032605;28;20049;-69
2021/08/17 06:50:33;;;;;;;23.63;11.23;;;;;;;16.19;71.23;101681.91;5034086;28;20420;-68
2021/08/17 06:53:01;;;;;;;21.38;10.95;;;;;;;16.31;70.88;101693.19;5034269;28;20397;-71
2021/08/17 06:55:28;;;;;;;24.95;10.82;;;;;;;16.33;71.06;101692.88;5034163;28;20460;-70
2021/08/17 06:57:55;;;;;;;28.52;11.73;;;;;;;16.70;69.42;101690.22;5032366;28;20543;-69
2021/08/17 07:00:23;;;;;;;26.85;12.23;;;;;;;16.58;69.51;101680.94;5034148;28;20534;-70
2021/08/17 07:02:51;;;;;;;18.60;10.50;;;;;;;16.76;69.11;101680.56;5034309;28;20645;-62
2021/08/17 07:05:29;;;;;;;22.85;11.75;;;;;;;16.82;68.90;101684.78;5032629;28;20428;-62
2021/08/17 07:07:57;;;;;;;21.30;10.23;;;;;;;16.81;69.25;101682.31;5034362;28;20446;-62
2021/08/17 07:10:24;;;;;;;20.35;9.77;;;;;;;16.97;68.90;101675.06;5033843;28;20524;-62
2021/08/17 07:13:12;;;;;;;24.88;10.68;;;;;;;16.88;68.43;101683.47;5041722;28;20641;-62
2021/08/17 07:15:39;;;;;;;28.20;10.68;;;;;;;16.88;68.84;101681.84;5053730;28;20075;-62
2021/08/17 07:18:07;;;;;;;22.83;11.23;;;;;;;16.92;68.92;101683.63;5053156;28;20060;-63
2021/08/17 07:20:35;;;;;;;27.80;11.05;;;;;;;17.11;67.77;101689.59;5053713;28;20591;-63
2021/08/17 07:23:03;;;;;;;23.45;10.90;;;;;;;17.08;68.22;101686.66;5052602;28;20401;-61
2021/08/17 07:25:31;;;;;;;24.58;11.13;;;;;;;17.36;67.20;101688.69;5052063;28;20059;-62
2021/08/17 07:27:58;;;;;;;25.65;10.63;;;;;;;17.08;68.02;101687.50;5051440;28;20056;-61
2021/08/17 07:30:26;;;;;;;20.05;9.95;;;;;;;17.55;66.78;101677.94;5052037;28;20489;-63
2021/08/17 07:32:53;;;;;;;23.35;9.85;;;;;;;17.55;66.89;101691.06;5053167;28;20044;-62
2021/08/17 07:35:21;;;;;;;20.65;9.68;;;;;;;17.55;66.84;101685.47;5051853;28;20056;-63
2021/08/17 07:37:48;;;;;;;26.98;10.25;;;;;;;17.34;67.31;101695.72;5051677;28;20057;-62
2021/08/17 07:40:17;;;;;;;23.20;9.80;;;;;;;17.60;66.57;101688.91;5053101;28;20049;-62
2021/08/17 07:42:45;;;;;;;26.17;9.82;;;;;;;17.77;65.91;101688.78;5053393;28;20053;-62
2021/08/17 07:45:15;;;;;;;23.02;9.90;;;;;;;17.63;66.32;101688.22;5053299;28;20614;-62
2021/08/17 07:47:42;;;;;;;19.40;9.02;;;;;;;17.67;66.67;101696.72;5053098;28;20059;-62
2021/08/17 07:50:11;;;;;;;22.30;9.55;;;;;;;17.48;66.60;101690.78;5053005;28;20044;-62
2021/08/17 07:52:39;;;;;;;21.65;9.43;;;;;;;17.34;67.29;101684.59;5053377;28;20051;-62
2021/08/17 07:55:09;;;;;;;22.55;9.40;;;;;;;17.26;67.90;101683.47;5053036;28;20057;-62
2021/08/17 07:57:36;;;;;;;23.15;10.02;;;;;;;17.34;68.08;101687.38;5052981;28;20056;-62
2021/08/17 08:00:07;;;;;;;27.10;10.13;;;;;;;17.60;67.47;101688.06;5053334;28;20049;-62
2021/08/17 08:02:34;;;;;;;22.63;11.93;;;;;;;17.86;66.75;101688.72;5051774;28;20056;-62
2021/08/17 08:05:03;;;;;;;23.88;9.82;;;;;;;17.84;66.36;101694.63;5053578;28;20435;-63
2021/08/17 08:07:30;;;;;;;24.13;8.85;;;;;;;17.98;65.60;101692.41;5053206;28;20053;-62
2021/08/17 08:09:57;;;;;;;18.77;9.15;;;;;;;18.20;65.29;101691.22;5051624;28;20052;-63
2021/08/17 08:12:24;;;;;;;23.83;9.05;;;;;;;18.16;65.08;101689.47;5050101;28;20491;-63
2021/08/17 08:14:52;;;;;;;28.23;9.35;;;;;;;18.17;65.04;101682.72;5033209;28;20060;-63
2021/08/17 08:17:19;;;;;;;22.15;8.90;;;;;;;17.99;65.90;101688.44;5036325;28;20050;-62
2021/08/17 08:19:47;;;;;;;21.40;8.75;;;;;;;17.85;66.34;101696.25;5036548;28;20045;-62
2021/08/17 08:22:14;;;;;;;18.75;8.93;;;;;;;17.69;67.59;101700.81;5037355;28;20516;-62
2021/08/17 08:24:41;;;;;;;19.10;8.77;;;;;;;17.92;66.71;101698.53;5037098;28;20064;-62
2021/08/17 08:27:09;;;;;;;22.63;8.95;;;;;;;18.41;65.62;101694.06;5037051;28;20610;-62
2021/08/17 08:29:36;;;;;;;22.35;8.70;;;;;;;18.46;65.31;101694.63;5035354;28;20199;-62
2021/08/17 08:32:04;;;;;;;19.95;8.57;;;;;;;18.90;63.73;101696.63;5037066;28;20060;-62
2021/08/17 08:34:31;;;;;;;16.13;7.60;;;;;;;18.56;64.78;101697.03;5036748;28;20491;-63
2021/08/17 08:36:58;;;;;;;22.88;9.38;;;;;;;18.47;64.96;101693.50;5036958;28;20056;-61
2021/08/17 08:39:28;;;;;;;19.77;9.03;;;;;;;18.36;65.79;101699.81;5036674;28;20052;-62
2021/08/17 08:41:57;;;;;;;19.20;8.57;;;;;;;18.51;64.80;101694.44;5035746;28;20049;-62
2021/08/17 08:44:25;;;;;;;16.40;8.30;;;;;;;18.76;64.88;101695.31;5036810;28;20064;-62
2021/08/17 08:46:53;;;;;;;20.63;8.38;;;;;;;18.78;64.21;101699.41;5035325;28;20049;-62
2021/08/17 08:49:21;;;;;;;16.67;8.18;;;;;;;18.51;65.67;101700.03;5035067;28;20046;-62
2021/08/17 08:51:48;;;;;;;16.98;7.80;;;;;;;18.92;64.86;101696.28;5035042;28;20417;-62
2021/08/17 08:54:15;;;;;;;19.73;7.95;;;;;;;19.43;62.66;101695.69;5035195;28;20401;-63
2021/08/17 08:56:43;;;;;;;21.65;7.82;;;;;;;19.31;63.11;101695.69;5036283;28;20061;-63
2021/08/17 08:59:10;;;;;;;17.98;6.50;;;;;;;19.21;63.08;101700.88;5034852;28;20050;-62
2021/08/17 09:01:38;;;;;;;20.40;7.60;;;;;;;18.89;63.18;101697.81;5036618;28;20060;-62
2021/08/17 09:04:06;;;;;;;17.15;7.38;;;;;;;18.79;64.40;101695.44;5034761;28;20049;-62
2021/08/17 09:06:33;;;;;;;18.25;6.88;;;;;;;18.99;63.16;101690.94;5036457;28;20049;-62
2021/08/17 09:09:12;;;;;;;17.25;6.38;;;;;;;18.87;63.41;101693.72;5034902;28;20060;-62
2021/08/17 09:11:42;;;;;;;15.73;6.75;;;;;;;18.88;63.24;101693.38;5036340;28;20046;-63
2021/08/17 09:14:15;;;;;;;18.73;6.80;;;;;;;19.34;62.41;101694.97;5052297;28;20152;-63
2021/08/17 09:16:42;;;;;;;20.90;7.25;;;;;;;19.23;62.45;101690.97;5056236;28;20049;-63
2021/08/17 09:19:22;;;;;;;14.90;6.90;;;;;;;19.32;62.42;101688.94;5055381;28;20049;-62
2021/08/17 09:21:49;;;;;;;18.30;6.47;;;;;;;19.22;62.22;101691.34;5055890;28;20056;-62
2021/08/17 09:24:26;;;;;;;14.60;6.60;;;;;;;19.32;60.70;101696.50;5055860;28;20049;-62
2021/08/17 09:26:59;;;;;;;14.10;6.32;;;;;;;19.52;59.42;101681.59;5055458;28;20400;-63
2021/08/17 09:29:30;;;;;;;15.90;6.45;;;;;;;19.21;60.19;101689.72;5037586;28;20061;-62
2021/08/17 09:32:00;;;;;;;17.05;6.55;;;;;;;18.87;60.68;101683.38;5054188;28;20468;-63
2021/08/17 09:34:34;;;;;;;18.77;6.68;;;;;;;19.00;60.22;101684.22;5055567;28;20045;-62
2021/08/17 09:37:08;;;;;;;15.02;6.68;;;;;;;18.96;60.58;101686.91;5054383;28;20041;-63
2021/08/17 09:39:40;;;;;;;14.07;6.28;;;;;;;18.51;62.48;101688.03;5055608;28;20053;-63
2021/08/17 09:42:09;;;;;;;15.40;6.43;;;;;;;18.66;62.14;101693.78;5055841;28;20037;-63
2021/08/17 09:44:37;;;;;;;13.10;5.95;;;;;;;18.82;61.63;101682.78;5055494;28;20045;-63
2021/08/17 09:47:04;;;;;;;20.65;6.90;;;;;;;18.79;61.31;101684.28;5055266;28;20059;-62
2021/08/17 09:49:32;;;;;;;14.80;5.65;;;;;;;18.74;61.03;101684.50;5054597;28;20041;-62
2021/08/17 09:52:09;;;;;;;12.82;6.30;;;;;;;18.92;59.45;101679.53;5055143;28;20056;-62
2021/08/17 09:54:39;;;;;;;14.35;6.43;;;;;;;18.69;59.19;101672.75;5053949;28;20052;-61
2021/08/17 09:57:07;;;;;;;11.48;5.95;;;;;;;18.56;59.22;101671.91;5054962;28;20593;-61
2021/08/17 09:59:36;;;;;;;14.38;6.30;;;;;;;18.66;59.16;101668.66;5053490;28;20211;-62
2021/08/17 10:02:05;;;;;;;13.43;6.18;;;;;;;18.99;58.80;101663.84;5055230;28;20048;-62
2021/08/17 10:04:35;;;;;;;22.43;6.67;;;;;;;19.11;58.27;101665.03;5054761;28;20660;-62
2021/08/17 10:07:03;;;;;;;13.05;5.40;;;;;;;19.27;57.24;101666.78;5053619;28;20639;-62
2021/08/17 10:09:32;;;;;;;11.73;5.80;;;;;;;19.25;57.79;101654.34;5053186;28;20052;-62
2021/08/17 10:12:01;;;;;;;16.42;5.88;;;;;;;19.52;58.23;101665.66;5054861;28;20052;-63
2021/08/17 10:14:29;;;;;;;11.48;5.90;;;;;;;19.72;56.96;101659.09;5036190;28;20064;-62
2021/08/17 10:16:57;;;;;;;16.65;6.43;;;;;;;19.49;57.03;101657.94;5033474;28;20045;-63
2021/08/17 10:19:26;;;;;;;17.23;6.68;;;;;;;19.42;56.08;101660.50;5034192;28;20060;-62
2021/08/17 10:21:55;;;;;;;11.98;6.18;;;;;;;19.51;56.38;101655.63;5034718;28;20401;-63
2021/08/17 10:24:33;;;;;;;14.40;6.18;;;;;;;19.37;57.57;101655.16;5033531;28;20064;-62
2021/08/17 10:27:21;;;;;;;18.98;6.28;;;;;;;19.48;57.66;101653.53;5034627;28;20424;-63
2021/08/17 10:30:09;;;;;;;13.45;6.07;;;;;;;19.67;57.04;101650.13;5033214;28;20045;-63
2021/08/17 10:32:56;;;;;;;14.95;6.22;;;;;;;19.75;56.02;101646.41;5034526;28;20064;-64
2021/08/17 10:35:30;;;;;;;24.52;6.80;;;;;;;19.92;55.67;101644.16;5033012;28;20076;-63
2021/08/17 10:38:17;;;;;;;14.13;6.97;;;;;;;19.63;56.02;101643.63;5033113;28;20049;-64
2021/08/17 10:40:53;;;;;;;16.63;6.68;;;;;;;19.80;56.18;101646.16;5034020;28;20481;-62
2021/08/17 10:43:30;;;;;;;14.00;6.50;;;;;;;19.05;57.96;101651.31;5034637;28;20160;-62
2021/08/17 10:45:59;;;;;;;13.10;6.30;;;;;;;19.24;58.44;101641.53;5034455;28;20049;-62
2021/08/17 10:48:45;;;;;;;19.50;8.02;;;;;;;19.54;57.50;101640.16;5034018;28;20056;-63
2021/08/17 10:51:18;;;;;;;13.18;6.22;;;;;;;19.53;56.73;101635.69;5032149;28;20061;-63
2021/08/17 10:53:51;;;;;;;14.55;6.18;;;;;;;19.49;56.09;101640.38;5034229;28;20083;-62
2021/08/17 10:56:30;;;;;;;14.73;6.38;;;;;;;19.60;56.16;101638.72;5034163;28;20049;-63
2021/08/17 10:58:57;;;;;;;17.90;6.80;;;;;;;19.26;57.45;101642.00;5033981;28;20495;-62
2021/08/17 11:01:30;;;;;;;15.90;6.45;;;;;;;19.07;57.24;101643.38;5033807;28;20045;-62
2021/08/17 11:04:00;;;;;;;15.27;6.28;;;;;;;18.96;58.13;101649.78;5033685;28;20061;-62
2021/08/17 11:06:49;;;;;;;19.33;6.72;;;;;;;19.00;58.49;101640.34;5034129;28;20045;-62
2021/08/17 11:09:36;;;;;;;14.90;5.93;;;;;;;18.94;58.34;101638.97;5032358;28;20057;-61
2021/08/17 11:12:07;;;;;;;11.80;5.40;;;;;;;18.78;59.31;101635.19;5033688;28;20041;-62
2021/08/17 11:14:36;;;;;;;17.33;6.78;;;;;;;19.28;58.72;101631.28;5051130;28;20295;-62
2021/08/17 11:17:06;;;;;;;17.10;6.60;;;;;;;19.66;57.84;101626.97;5053576;28;20049;-62
2021/08/17 11:19:35;;;;;;;12.57;5.80;;;;;;;19.91;56.79;101625.72;5051979;28;20151;-62